Time;durP1;ratioP1;P1;durP2;ratioP2;P2;SDS_P1;SDS_P2;PMS_P1;PMS_P2;Temp;Humidity;BMP_temperature;BMP_pressure;BME280_temperature;BME280_humidity;BME280_pressure;Samples;Min_cycle;Max_cycle;Signal;HPM_P1;HPM_P2
2021/07/09 00:07:45;;;;;;;10.25;3.95;;;21.90;81.70;;;;;;4019809;27;20123;-73
2021/07/09 00:09:50;;;;;;;8.30;4.07;;;21.80;81.70;;;;;;4252910;27;20051;-70
2021/07/09 00:11:54;;;;;;;;;;;22.00;80.70;;;;;;4250399;27;20238;-71
2021/07/09 00:13:57;;;;;;;7.97;4.00;;;22.10;80.80;;;;;;4254109;27;19926;-70
2021/07/09 00:16:01;;;;;;;6.32;3.90;;;22.10;81.30;;;;;;4255823;27;20111;-71
2021/07/09 00:18:04;;;;;;;7.18;3.50;;;22.10;81.50;;;;;;4254605;27;20185;-70
2021/07/09 00:20:08;;;;;;;10.10;4.03;;;22.20;81.20;;;;;;4254096;27;20123;-70
2021/07/09 00:22:11;;;;;;;4.32;3.90;;;22.20;80.80;;;;;;4248167;27;20136;-70
2021/07/09 00:24:22;;;;;;;6.53;3.70;;;22.20;81.40;;;;;;4247132;27;20043;-70
2021/07/09 00:26:25;;;;;;;6.10;3.47;;;22.10;82.30;;;;;;4249856;27;20051;-70
2021/07/09 00:28:29;;;;;;;10.43;4.30;;;22.00;81.70;;;;;;4250003;27;20051;-71
2021/07/09 00:30:32;;;;;;;8.05;3.45;;;22.00;82.00;;;;;;4250385;27;20070;-71
2021/07/09 00:32:35;;;;;;;7.43;3.60;;;22.00;81.70;;;;;;4233320;28;20135;-70
2021/07/09 00:34:38;;;;;;;7.25;3.83;;;22.00;81.60;;;;;;4252589;27;20051;-70
2021/07/09 00:36:41;;;;;;;4.68;3.63;;;21.90;81.60;;;;;;4256310;27;20039;-70
2021/07/09 00:38:44;;;;;;;7.65;3.70;;;22.00;81.20;;;;;;4254397;27;20051;-70
2021/07/09 00:40:49;;;;;;;4.50;3.50;;;22.00;81.50;;;;;;4255543;27;20130;-70
2021/07/09 00:42:52;;;;;;;6.57;3.72;;;22.00;82.40;;;;;;4254016;27;20057;-70
2021/07/09 00:44:56;;;;;;;6.38;3.60;;;22.00;82.20;;;;;;4232593;28;20094;-70
2021/07/09 00:47:00;;;;;;;8.98;3.63;;;21.90;82.00;;;;;;4248957;27;20055;-73
2021/07/09 00:49:04;;;;;;;7.57;3.85;;;21.90;82.40;;;;;;4248501;27;20047;-73
2021/07/09 00:51:09;;;;;;;5.35;3.75;;;21.90;82.60;;;;;;4249155;27;20051;-70
2021/07/09 00:53:12;;;;;;;;;;;21.90;83.00;;;;;;4249349;27;20381;-70
2021/07/09 00:55:16;;;;;;;4.43;3.60;;;21.80;82.90;;;;;;4230622;28;19920;-70
2021/07/09 00:57:21;;;;;;;6.55;3.40;;;21.90;82.40;;;;;;4248616;27;20061;-72
2021/07/09 00:59:24;;;;;;;5.35;3.53;;;22.00;82.20;;;;;;4251857;27;20059;-72
2021/07/09 01:01:27;;;;;;;7.10;3.85;;;22.00;82.40;;;;;;4259670;27;20236;-72
2021/07/09 01:03:31;;;;;;;7.00;3.63;;;21.90;83.00;;;;;;4250827;27;20138;-72
2021/07/09 01:05:35;;;;;;;8.20;4.60;;;21.90;82.10;;;;;;4248831;27;20043;-72
2021/07/09 01:07:38;;;;;;;5.63;4.00;;;21.80;83.40;;;;;;4248663;27;20043;-72
2021/07/09 01:09:41;;;;;;;7.97;3.97;;;21.60;84.00;;;;;;4248596;27;20085;-74
2021/07/09 01:11:48;;;;;;;7.95;4.13;;;21.70;83.00;;;;;;4232199;28;20107;-71
2021/07/09 01:13:52;;;;;;;9.85;4.10;;;21.70;83.50;;;;;;4250976;27;20059;-71
2021/07/09 01:15:56;;;;;;;7.78;3.75;;;21.80;83.60;;;;;;4251698;27;20061;-71
2021/07/09 01:17:59;;;;;;;9.48;4.63;;;21.70;83.40;;;;;;4251082;27;20063;-72
2021/07/09 01:20:04;;;;;;;7.00;4.25;;;21.70;83.60;;;;;;4251469;27;20051;-71
2021/07/09 01:22:07;;;;;;;7.50;4.07;;;21.70;83.30;;;;;;4248598;27;20043;-72
2021/07/09 01:24:12;;;;;;;9.20;4.35;;;21.60;83.70;;;;;;4247806;27;20043;-69
2021/07/09 01:26:15;;;;;;;;;;;21.60;84.40;;;;;;4248185;27;20057;-69
2021/07/09 01:28:18;;;;;;;5.95;3.92;;;21.60;84.70;;;;;;4248102;27;19919;-69
2021/07/09 01:30:23;;;;;;;8.30;4.28;;;21.60;83.90;;;;;;4247736;27;20065;-69
2021/07/09 01:32:26;;;;;;;9.95;3.95;;;21.50;85.30;;;;;;4248134;27;20119;-70
2021/07/09 01:34:29;;;;;;;8.45;3.72;;;21.50;84.90;;;;;;4247754;27;20793;-70
2021/07/09 01:36:33;;;;;;;7.47;3.85;;;21.60;83.70;;;;;;4247291;27;20252;-69
2021/07/09 01:38:36;;;;;;;8.68;4.18;;;21.70;84.40;;;;;;4249979;27;20058;-69
2021/07/09 01:40:41;;;;;;;7.50;3.85;;;21.70;84.70;;;;;;4248804;27;20609;-70
2021/07/09 01:42:44;;;;;;;7.03;5.03;;;21.70;83.50;;;;;;4247643;27;20430;-70
2021/07/09 01:44:47;;;;;;;8.02;4.28;;;21.80;84.70;;;;;;4250559;27;20044;-70
2021/07/09 01:46:50;;;;;;;8.23;4.30;;;21.80;83.90;;;;;;4251623;27;20047;-71
2021/07/09 01:48:53;;;;;;;7.07;4.30;;;21.80;83.90;;;;;;4251366;27;20059;-71
2021/07/09 01:50:56;;;;;;;5.63;4.10;;;21.70;84.20;;;;;;4250916;27;20051;-70
2021/07/09 01:53:00;;;;;;;9.10;4.43;;;21.80;83.80;;;;;;4251983;27;20047;-70
2021/07/09 01:55:05;;;;;;;6.20;4.13;;;21.70;83.80;;;;;;4253746;27;20055;-70
2021/07/09 01:57:10;;;;;;;5.97;4.30;;;21.80;83.20;;;;;;4258241;27;20103;-70
2021/07/09 01:59:13;;;;;;;7.88;4.35;;;21.80;83.90;;;;;;4259953;27;20051;-71
2021/07/09 02:01:16;;;;;;;5.18;4.22;;;21.80;83.90;;;;;;4260217;27;20119;-71
2021/07/09 02:03:20;;;;;;;8.00;4.68;;;21.60;84.90;;;;;;4250277;27;20055;-70
2021/07/09 02:05:24;;;;;;;7.88;4.50;;;21.60;85.40;;;;;;4249841;27;20138;-71
2021/07/09 02:07:27;;;;;;;8.82;4.28;;;21.60;84.70;;;;;;4249540;27;20503;-70
2021/07/09 02:09:31;;;;;;;6.38;4.13;;;21.70;84.20;;;;;;4248879;27;20383;-71
2021/07/09 02:11:34;;;;;;;7.70;4.47;;;21.60;84.10;;;;;;4248220;27;20047;-71
2021/07/09 02:13:38;;;;;;;22.58;5.22;;;21.70;84.30;;;;;;4248418;27;20055;-70
2021/07/09 02:15:46;;;;;;;15.05;4.57;;;21.60;85.10;;;;;;4248016;27;20051;-70
2021/07/09 02:17:49;;;;;;;11.13;4.80;;;21.60;85.70;;;;;;4226028;27;20496;-71
2021/07/09 02:19:54;;;;;;;14.25;4.43;;;21.50;86.30;;;;;;4247386;27;20405;-70
2021/07/09 02:22:00;;;;;;;12.90;5.05;;;21.20;86.80;;;;;;4246833;27;20381;-69
2021/07/09 02:24:04;;;;;;;9.75;4.53;;;21.30;86.50;;;;;;4246993;27;20674;-70
2021/07/09 02:26:07;;;;;;;10.20;5.13;;;21.30;86.10;;;;;;4246943;27;20506;-72
2021/07/09 02:28:10;;;;;;;8.43;4.30;;;21.40;85.70;;;;;;4246857;27;20047;-73
2021/07/09 02:30:16;;;;;;;18.73;5.40;;;21.40;86.10;;;;;;4247662;27;20073;-70
2021/07/09 02:32:19;;;;;;;12.98;5.05;;;21.40;86.10;;;;;;4246749;27;20053;-70
2021/07/09 02:34:23;;;;;;;9.20;4.60;;;21.40;86.10;;;;;;4247935;27;20051;-70
2021/07/09 02:36:26;;;;;;;11.10;4.97;;;21.30;87.80;;;;;;4247824;27;20571;-70
2021/07/09 02:38:29;;;;;;;9.43;4.57;;;21.10;88.40;;;;;;4247137;27;20479;-70
2021/07/09 02:40:33;;;;;;;5.45;4.43;;;21.10;87.90;;;;;;4247085;27;20052;-70
2021/07/09 02:42:36;;;;;;;7.70;4.65;;;21.10;88.20;;;;;;4247711;27;20559;-70
2021/07/09 02:44:39;;;;;;;7.38;4.65;;;21.20;87.70;;;;;;4250638;27;20053;-70
2021/07/09 02:46:43;;;;;;;13.15;5.25;;;21.30;87.30;;;;;;4251100;27;20057;-70
2021/07/09 02:48:47;;;;;;;11.63;4.75;;;21.30;87.50;;;;;;4249386;27;20055;-70
2021/07/09 02:50:50;;;;;;;8.13;5.30;;;21.00;88.80;;;;;;4253378;27;20070;-72
2021/07/09 02:52:53;;;;;;;9.00;5.03;;;21.00;89.40;;;;;;4251646;27;20051;-71
2021/07/09 02:54:56;;;;;;;14.63;5.53;;;21.10;89.20;;;;;;4251111;27;20047;-70
2021/07/09 02:56:59;;;;;;;10.68;5.40;;;21.00;89.40;;;;;;4230411;28;20051;-70
2021/07/09 02:59:02;;;;;;;7.10;4.90;;;21.00;88.50;;;;;;4248078;27;20391;-70
2021/07/09 03:01:05;;;;;;;13.05;4.97;;;21.10;89.20;;;;;;4247086;27;20063;-70
2021/07/09 03:03:10;;;;;;;11.75;5.38;;;21.10;88.20;;;;;;4246463;27;20057;-71
2021/07/09 03:05:13;;;;;;;7.70;4.85;;;20.90;90.20;;;;;;4246806;27;20058;-69
2021/07/09 03:07:16;;;;;;;7.55;4.80;;;20.90;89.10;;;;;;4251773;27;20051;-71
2021/07/09 03:09:19;;;;;;;9.68;5.38;;;21.00;88.70;;;;;;4248557;27;20051;-70
2021/07/09 03:11:23;;;;;;;6.97;4.25;;;20.90;90.00;;;;;;4228588;28;20539;-70
2021/07/09 03:13:26;;;;;;;8.27;5.25;;;21.00;88.50;;;;;;4245995;27;20047;-71
2021/07/09 03:15:29;;;;;;;11.32;5.07;;;21.00;89.10;;;;;;4246198;27;20051;-70
2021/07/09 03:17:33;;;;;;;9.32;5.20;;;21.00;89.40;;;;;;4246339;27;20524;-70
2021/07/09 03:19:37;;;;;;;13.07;5.70;;;21.00;90.00;;;;;;4245776;27;20057;-71
2021/07/09 03:21:40;;;;;;;9.60;5.13;;;21.10;88.50;;;;;;4246373;27;20523;-70
2021/07/09 03:23:43;;;;;;;13.05;6.07;;;20.90;90.00;;;;;;4246415;27;20074;-70
2021/07/09 03:25:46;;;;;;;9.18;4.63;;;20.80;90.50;;;;;;4246356;27;20053;-70
2021/07/09 03:27:49;;;;;;;10.57;5.90;;;20.90;90.10;;;;;;4246906;27;20629;-71
2021/07/09 03:29:52;;;;;;;11.15;6.18;;;20.80;90.70;;;;;;4248071;27;20138;-72
2021/07/09 03:31:56;;;;;;;18.95;6.18;;;20.70;90.80;;;;;;4237059;28;20553;-71
2021/07/09 03:33:59;;;;;;;9.55;6.38;;;20.50;91.50;;;;;;4255546;27;20062;-70
2021/07/09 03:36:04;;;;;;;7.18;4.97;;;20.50;91.50;;;;;;4252300;27;20165;-70
2021/07/09 03:38:07;;;;;;;;;;;20.50;91.60;;;;;;4233239;28;20056;-70
2021/07/09 03:40:11;;;;;;;10.57;5.30;;;20.60;90.90;;;;;;4249814;27;19919;-70
2021/07/09 03:42:14;;;;;;;9.53;5.43;;;20.70;90.70;;;;;;4247106;27;20069;-70
2021/07/09 03:44:17;;;;;;;15.20;6.15;;;20.70;90.70;;;;;;4245969;27;20048;-71
2021/07/09 03:46:20;;;;;;;13.60;6.05;;;20.70;91.10;;;;;;4247046;27;20394;-71
2021/07/09 03:48:23;;;;;;;13.25;6.22;;;20.70;91.00;;;;;;4247069;27;20134;-72
2021/07/09 03:50:26;;;;;;;9.80;6.10;;;20.70;90.60;;;;;;4246561;27;20059;-70
2021/07/09 03:52:31;;;;;;;12.20;6.20;;;20.70;90.80;;;;;;4247458;27;20487;-70
2021/07/09 03:54:34;;;;;;;14.02;6.57;;;20.70;91.30;;;;;;4248098;27;20039;-70
2021/07/09 03:56:37;;;;;;;10.75;6.22;;;20.60;90.70;;;;;;4251676;27;20454;-70
2021/07/09 03:58:40;;;;;;;18.60;6.90;;;20.60;91.80;;;;;;4252967;27;20055;-70
2021/07/09 04:00:43;;;;;;;15.38;6.43;;;20.60;91.70;;;;;;4247924;27;20058;-70
2021/07/09 04:02:46;;;;;;;12.98;5.78;;;20.60;91.00;;;;;;4248825;27;20487;-70
2021/07/09 04:04:49;;;;;;;13.95;6.60;;;20.70;90.50;;;;;;4245648;27;20058;-71
2021/07/09 04:06:52;;;;;;;7.82;6.47;;;20.60;91.30;;;;;;4245695;27;20654;-70
2021/07/09 04:08:57;;;;;;;9.10;5.70;;;20.50;91.50;;;;;;4247978;27;20058;-70
2021/07/09 04:11:00;;;;;;;8.82;6.53;;;20.60;90.70;;;;;;4250514;27;20110;-70
2021/07/09 04:13:04;;;;;;;16.33;6.65;;;20.60;91.60;;;;;;4252731;27;20534;-70
2021/07/09 04:15:08;;;;;;;9.65;5.75;;;20.60;91.00;;;;;;4250298;27;20058;-70
2021/07/09 04:17:11;;;;;;;11.65;5.75;;;20.60;90.70;;;;;;4239118;27;20123;-70
2021/07/09 04:19:15;;;;;;;12.30;6.57;;;20.70;91.10;;;;;;4231588;28;20065;-70
2021/07/09 04:21:18;;;;;;;9.82;5.68;;;20.70;90.60;;;;;;4231519;28;20048;-70
2021/07/09 04:23:21;;;;;;;11.38;6.25;;;20.70;90.30;;;;;;4248489;27;20051;-69
2021/07/09 04:25:25;;;;;;;13.38;6.70;;;20.80;90.40;;;;;;4248841;27;20058;-69
2021/07/09 04:27:29;;;;;;;9.90;6.00;;;20.70;90.40;;;;;;4248668;27;20051;-70
2021/07/09 04:29:32;;;;;;;13.73;6.82;;;20.80;90.20;;;;;;4248843;27;20502;-71
2021/07/09 04:31:35;;;;;;;13.52;6.68;;;20.70;91.10;;;;;;4248469;27;20535;-70
2021/07/09 04:33:39;;;;;;;17.23;6.45;;;20.50;91.80;;;;;;4248497;27;20061;-71
2021/07/09 04:35:42;;;;;;;12.48;6.82;;;20.40;91.70;;;;;;4248129;27;20047;-71
2021/07/09 04:37:45;;;;;;;11.68;5.82;;;20.30;92.10;;;;;;4248630;27;20051;-71
2021/07/09 04:39:48;;;;;;;10.32;6.40;;;20.50;91.60;;;;;;4248456;27;20078;-70
2021/07/09 04:41:52;;;;;;;13.52;6.78;;;20.60;92.00;;;;;;4248622;27;20043;-70
2021/07/09 04:43:55;;;;;;;10.32;6.95;;;20.60;91.50;;;;;;4248748;27;20059;-72
2021/07/09 04:45:58;;;;;;;9.95;6.38;;;20.60;91.50;;;;;;4230368;28;20056;-69
2021/07/09 04:48:02;;;;;;;11.75;7.72;;;20.70;91.70;;;;;;4248746;27;20130;-69
2021/07/09 04:50:06;;;;;;;10.63;5.90;;;20.70;92.10;;;;;;4248585;27;20062;-69
2021/07/09 04:52:09;;;;;;;15.80;7.10;;;20.70;91.40;;;;;;4248357;27;20051;-71
2021/07/09 04:54:12;;;;;;;16.08;7.85;;;20.60;92.00;;;;;;4248154;27;20415;-69
2021/07/09 04:56:15;;;;;;;13.35;6.65;;;20.70;91.60;;;;;;4248343;27;20138;-72
2021/07/09 04:58:20;;;;;;;18.38;6.93;;;20.70;91.50;;;;;;4248299;27;20051;-70
2021/07/09 05:00:23;;;;;;;17.45;7.22;;;20.70;91.70;;;;;;4248626;27;20503;-70
2021/07/09 05:02:26;;;;;;;14.52;6.95;;;20.70;92.00;;;;;;4250582;27;20047;-71
2021/07/09 05:04:29;;;;;;;17.13;7.45;;;20.70;91.70;;;;;;4251092;27;20131;-73
2021/07/09 05:06:32;;;;;;;18.30;7.28;;;20.80;91.50;;;;;;4251421;27;20400;-70
2021/07/09 05:08:35;;;;;;;15.98;7.15;;;20.60;92.20;;;;;;4251641;27;20084;-70
2021/07/09 05:10:38;;;;;;;18.05;7.32;;;20.70;91.80;;;;;;4232281;27;20111;-70
2021/07/09 05:12:42;;;;;;;14.18;7.43;;;20.70;92.20;;;;;;4248399;27;20048;-70
2021/07/09 05:14:48;;;;;;;14.07;7.55;;;20.60;92.40;;;;;;4254335;27;20047;-70
2021/07/09 05:16:52;;;;;;;16.95;6.55;;;20.70;92.60;;;;;;4254067;27;20055;-69
2021/07/09 05:18:56;;;;;;;15.32;7.15;;;20.70;92.10;;;;;;4230261;28;20059;-70
2021/07/09 05:20:59;;;;;;;22.33;7.75;;;20.80;91.80;;;;;;4248092;27;20138;-70
2021/07/09 05:23:02;;;;;;;17.38;7.43;;;20.70;92.60;;;;;;4246762;27;20134;-69
2021/07/09 05:25:06;;;;;;;19.08;7.47;;;20.70;92.20;;;;;;4247904;27;20402;-71
2021/07/09 05:27:09;;;;;;;17.00;7.40;;;20.50;92.90;;;;;;4247773;27;20061;-70
2021/07/09 05:29:12;;;;;;;20.58;7.15;;;20.60;92.80;;;;;;4247750;27;20055;-70
2021/07/09 05:31:16;;;;;;;23.73;7.88;;;20.80;92.20;;;;;;4247795;27;20059;-70
2021/07/09 05:33:20;;;;;;;19.17;8.20;;;20.80;92.50;;;;;;4247666;27;20059;-70
2021/07/09 05:35:23;;;;;;;17.88;7.97;;;20.80;92.70;;;;;;4247748;27;20604;-69
2021/07/09 05:37:27;;;;;;;17.92;8.15;;;20.70;92.50;;;;;;4229596;28;20058;-70
2021/07/09 05:39:30;;;;;;;21.35;8.43;;;20.80;92.50;;;;;;4244461;27;20423;-69
2021/07/09 05:41:33;;;;;;;20.38;7.32;;;20.80;92.50;;;;;;4249052;27;20069;-71
2021/07/09 05:43:36;;;;;;;16.38;7.30;;;20.90;92.20;;;;;;4249021;27;20074;-71
2021/07/09 05:45:39;;;;;;;15.88;8.00;;;21.00;92.10;;;;;;4248591;27;20051;-69
2021/07/09 05:47:48;;;;;;;23.52;8.20;;;21.10;92.00;;;;;;4248357;27;20077;-69
2021/07/09 05:49:51;;;;;;;23.42;8.65;;;21.00;92.30;;;;;;4245047;27;20150;-70
2021/07/09 05:51:54;;;;;;;18.05;7.93;;;21.10;92.40;;;;;;4247620;27;20047;-69
2021/07/09 05:53:57;;;;;;;23.23;8.65;;;21.00;92.20;;;;;;4247358;27;20047;-70
2021/07/09 05:56:00;;;;;;;17.73;7.18;;;21.10;92.10;;;;;;4248157;27;20051;-69
2021/07/09 05:58:03;;;;;;;16.30;7.38;;;21.20;91.90;;;;;;4247580;27;20084;-70
2021/07/09 06:00:11;;;;;;;16.95;7.88;;;21.30;91.50;;;;;;4244160;27;20052;-70
2021/07/09 06:02:14;;;;;;;18.60;7.65;;;21.40;91.20;;;;;;4247847;27;20062;-70
2021/07/09 06:04:18;;;;;;;24.70;8.65;;;21.50;91.40;;;;;;4247828;27;20055;-71
2021/07/09 06:06:22;;;;;;;13.55;7.32;;;21.50;91.20;;;;;;4247405;27;20139;-70
2021/07/09 06:08:26;;;;;;;22.77;8.13;;;21.60;90.90;;;;;;4247097;27;20705;-70
2021/07/09 06:10:29;;;;;;;15.85;7.68;;;21.70;90.90;;;;;;4248814;27;20184;-70
2021/07/09 06:12:32;;;;;;;26.40;8.43;;;21.80;90.80;;;;;;4248994;27;20051;-70
2021/07/09 06:14:36;;;;;;;21.60;8.73;;;21.80;90.80;;;;;;4247042;27;20047;-69
2021/07/09 06:16:39;;;;;;;30.70;8.63;;;21.70;90.90;;;;;;4246945;27;20548;-70
2021/07/09 06:18:42;;;;;;;29.60;9.07;;;21.60;90.80;;;;;;4247330;27;20055;-70
2021/07/09 06:20:58;;;;;;;18.45;7.10;;;21.60;90.70;;;;;;4243900;27;20058;-71
2021/07/09 06:23:02;;;;;;;26.02;8.07;;;21.70;90.50;;;;;;4247264;27;20055;-70
2021/07/09 06:25:06;;;;;;;17.70;8.40;;;21.80;90.60;;;;;;4246652;27;20047;-69
2021/07/09 06:27:09;;;;;;;24.10;7.83;;;21.90;90.20;;;;;;4247340;27;20051;-72
2021/07/09 06:29:12;;;;;;;18.85;6.20;;;21.90;90.30;;;;;;4247183;27;20055;-72
2021/07/09 06:31:16;;;;;;;11.95;5.82;;;21.90;89.10;;;;;;4247190;27;20058;-70
2021/07/09 06:33:19;;;;;;;;;;;21.90;88.80;;;;;;4247569;27;20055;-72
2021/07/09 06:35:28;;;;;;;14.65;6.93;;;21.80;89.40;;;;;;4251796;27;19920;-72
2021/07/09 06:37:33;;;;;;;24.95;7.53;;;21.80;89.00;;;;;;4247869;27;20065;-70
2021/07/09 06:39:36;;;;;;;26.77;7.18;;;21.90;88.80;;;;;;4249741;27;20061;-70
2021/07/09 06:41:39;;;;;;;19.42;7.22;;;21.80;89.70;;;;;;4248704;27;20051;-70
2021/07/09 06:43:42;;;;;;;22.65;7.15;;;21.50;90.30;;;;;;4247419;27;20418;-70
2021/07/09 06:45:45;;;;;;;9.75;5.50;;;21.60;90.00;;;;;;4246645;27;20061;-70
2021/07/09 06:47:49;;;;;;;24.35;6.40;;;21.50;88.20;;;;;;4247263;27;20077;-71
2021/07/09 06:49:52;;;;;;;14.43;6.63;;;21.60;88.80;;;;;;4246998;27;20543;-70
2021/07/09 06:51:55;;;;;;;15.23;6.22;;;21.70;88.50;;;;;;4243411;27;20471;-71
2021/07/09 06:53:59;;;;;;;22.30;7.07;;;21.80;88.50;;;;;;4247156;27;20426;-71
2021/07/09 06:56:04;;;;;;;17.42;6.53;;;22.00;89.00;;;;;;4246932;27;20055;-71
2021/07/09 06:58:07;;;;;;;19.63;7.47;;;22.10;88.30;;;;;;4247274;27;20051;-71
2021/07/09 07:00:11;;;;;;;13.93;5.30;;;22.10;87.90;;;;;;4249990;27;20102;-71
2021/07/09 07:02:14;;;;;;;13.13;5.30;;;22.10;87.40;;;;;;4250358;27;20055;-71
2021/07/09 07:04:18;;;;;;;12.57;5.95;;;22.10;87.40;;;;;;4254598;27;20109;-71
2021/07/09 07:06:21;;;;;;;15.10;6.25;;;22.10;86.90;;;;;;4257652;27;20067;-72
2021/07/09 07:08:25;;;;;;;12.25;5.40;;;22.10;86.50;;;;;;4251911;27;20508;-70
2021/07/09 07:10:29;;;;;;;11.73;5.17;;;22.20;85.50;;;;;;4235849;28;20107;-72
2021/07/09 07:12:33;;;;;;;11.05;5.53;;;22.10;85.20;;;;;;4237729;28;20106;-73
2021/07/09 07:14:36;;;;;;;12.85;6.20;;;22.20;85.60;;;;;;4256308;27;20130;-73
2021/07/09 07:16:39;;;;;;;23.08;6.82;;;22.10;86.10;;;;;;4256317;27;20053;-71
2021/07/09 07:18:42;;;;;;;13.88;6.50;;;21.80;86.90;;;;;;4253141;27;20130;-71
2021/07/09 07:20:47;;;;;;;21.80;6.97;;;21.90;86.40;;;;;;4251992;27;20051;-72
2021/07/09 07:22:49;;;;;;;12.52;5.88;;;21.90;86.90;;;;;;4259821;27;20130;-71
2021/07/09 07:24:53;;;;;;;13.73;6.68;;;22.10;87.10;;;;;;4251054;27;20134;-71
2021/07/09 07:26:58;;;;;;;14.35;5.20;;;22.20;86.50;;;;;;4246708;27;20043;-71
2021/07/09 07:29:01;;;;;;;28.10;7.20;;;22.30;86.00;;;;;;4246895;27;20047;-71
2021/07/09 07:31:05;;;;;;;20.63;6.03;;;22.30;85.50;;;;;;4246574;27;20658;-71
2021/07/09 07:33:11;;;;;;;15.38;6.43;;;22.30;85.80;;;;;;4246402;27;20054;-71
2021/07/09 07:35:14;;;;;;;18.75;5.85;;;22.40;85.60;;;;;;4246916;27;20503;-71
2021/07/09 07:37:18;;;;;;;16.45;6.18;;;22.40;85.80;;;;;;4246618;27;20069;-71
2021/07/09 07:39:21;;;;;;;15.45;5.55;;;22.60;85.30;;;;;;4246769;27;20051;-71
2021/07/09 07:41:24;;;;;;;19.15;6.22;;;22.70;85.10;;;;;;4247869;27;20063;-71
2021/07/09 07:43:29;;;;;;;20.42;5.72;;;22.70;84.60;;;;;;4250664;27;20059;-72
2021/07/09 07:45:33;;;;;;;22.20;6.15;;;22.70;84.80;;;;;;4254378;27;20050;-72
2021/07/09 07:47:36;;;;;;;22.23;5.90;;;22.60;84.30;;;;;;4256249;27;20078;-71
2021/07/09 07:49:39;;;;;;;18.95;6.40;;;22.70;84.30;;;;;;4253162;27;20047;-71
2021/07/09 07:51:42;;;;;;;20.83;6.70;;;22.80;84.70;;;;;;4256569;27;20055;-71
2021/07/09 07:53:46;;;;;;;16.85;6.57;;;22.80;84.30;;;;;;4262052;27;20098;-71
2021/07/09 07:55:49;;;;;;;14.93;6.65;;;22.90;83.60;;;;;;4262137;27;20073;-70
2021/07/09 07:57:52;;;;;;;18.38;5.60;;;22.90;82.90;;;;;;4259453;27;20047;-71
2021/07/09 07:59:57;;;;;;;23.98;6.20;;;23.00;84.00;;;;;;4260610;27;20468;-71
2021/07/09 08:02:00;;;;;;;17.73;6.45;;;23.10;84.10;;;;;;4256043;27;20450;-71
2021/07/09 08:04:04;;;;;;;25.15;6.95;;;23.20;83.80;;;;;;4252824;27;20491;-71
2021/07/09 08:06:07;;;;;;;19.65;6.88;;;22.90;82.70;;;;;;4235129;28;20504;-71
2021/07/09 08:08:10;;;;;;;22.35;6.68;;;22.80;83.10;;;;;;4249573;27;20058;-71
2021/07/09 08:10:13;;;;;;;16.52;6.60;;;22.80;83.90;;;;;;4242341;28;20074;-72
2021/07/09 08:12:16;;;;;;;27.95;7.68;;;22.90;83.30;;;;;;4258361;27;20142;-71
2021/07/09 08:14:20;;;;;;;20.67;6.93;;;22.60;83.30;;;;;;4254548;27;20055;-71
2021/07/09 08:16:24;;;;;;;23.70;6.65;;;22.50;84.00;;;;;;4236236;28;20055;-71
2021/07/09 08:18:27;;;;;;;15.73;6.38;;;22.70;84.80;;;;;;4256341;27;20055;-74
2021/07/09 08:20:32;;;;;;;18.92;6.85;;;22.90;84.70;;;;;;4255385;27;20462;-70
2021/07/09 08:22:38;;;;;;;;;;;23.10;84.20;;;;;;4258067;27;20055;-70
2021/07/09 08:24:41;;;;;;;13.73;6.00;;;23.30;82.70;;;;;;4256109;27;19919;-71
2021/07/09 08:26:45;;;;;;;9.60;4.95;;;23.40;82.00;;;;;;4251139;27;20069;-71
2021/07/09 08:28:48;;;;;;;13.98;6.32;;;23.40;81.70;;;;;;4246131;27;20406;-71
2021/07/09 08:30:51;;;;;;;10.93;5.30;;;23.50;81.70;;;;;;4253558;27;20134;-71
2021/07/09 08:32:55;;;;;;;17.63;6.40;;;23.50;80.80;;;;;;4237185;28;20193;-71
2021/07/09 08:34:59;;;;;;;;;;;23.40;80.10;;;;;;4255099;27;20080;-71
2021/07/09 08:37:23;;;;;;;11.60;5.80;;;23.70;80.70;;;;;;4239002;28;19919;-71
2021/07/09 08:39:27;;;;;;;13.32;5.07;;;23.50;79.20;;;;;;4251835;27;20507;-71
2021/07/09 08:41:32;;;;;;;8.07;5.45;;;23.60;80.10;;;;;;4250670;27;20488;-71
2021/07/09 08:43:38;;;;;;;14.25;6.05;;;23.70;80.70;;;;;;4254550;27;20419;-71
2021/07/09 08:45:41;;;;;;;19.75;6.82;;;23.60;80.80;;;;;;4231992;28;20061;-71
2021/07/09 08:47:44;;;;;;;10.45;5.82;;;23.50;80.00;;;;;;4250954;27;20062;-70
2021/07/09 08:49:50;;;;;;;18.67;6.25;;;23.60;81.40;;;;;;4249631;27;20126;-71
2021/07/09 08:51:53;;;;;;;10.20;5.65;;;23.60;81.00;;;;;;4251422;27;20130;-71
2021/07/09 08:53:56;;;;;;;13.77;5.68;;;23.70;80.30;;;;;;4249854;27;20051;-71
2021/07/09 08:56:00;;;;;;;10.65;5.53;;;23.80;80.60;;;;;;4247812;27;20051;-71
2021/07/09 08:58:05;;;;;;;9.30;5.03;;;23.70;80.30;;;;;;4247516;27;20055;-71
2021/07/09 09:00:40;;;;;;;9.13;4.32;;;23.70;79.10;;;;;;4248718;27;20062;-71
2021/07/09 09:02:46;;;;;;;5.15;4.05;;;23.80;78.50;;;;;;4248702;27;20043;-71
2021/07/09 09:04:51;;;;;;;8.77;3.72;;;23.80;78.90;;;;;;4248768;27;20089;-71
2021/07/09 09:06:59;;;;;;;8.65;4.00;;;23.60;78.20;;;;;;4249484;27;20056;-71
2021/07/09 09:09:13;;;;;;;10.00;4.93;;;23.30;78.40;;;;;;4249519;27;20388;-70
2021/07/09 09:11:19;;;;;;;9.70;4.68;;;23.10;78.90;;;;;;4248988;27;20039;-71
2021/07/09 09:13:23;;;;;;;16.05;4.75;;;23.30;79.20;;;;;;4247048;27;20045;-71
2021/07/09 09:15:26;;;;;;;;;;;23.40;80.00;;;;;;4232181;28;20054;-71
2021/07/09 09:17:33;;;;;;;8.00;4.55;;;23.30;81.10;;;;;;4249193;27;19977;-71
2021/07/09 09:19:37;;;;;;;11.38;4.43;;;23.50;81.70;;;;;;4248649;27;20043;-71
2021/07/09 09:21:41;;;;;;;13.00;5.43;;;23.50;80.30;;;;;;4248522;27;20055;-72
2021/07/09 09:23:53;;;;;;;7.03;4.00;;;23.40;80.90;;;;;;4248770;27;20050;-72
2021/07/09 09:26:40;;;;;;;7.93;4.03;;;23.50;81.40;;;;;;4246151;27;20082;-70
2021/07/09 09:28:43;;;;;;;9.75;4.43;;;23.30;81.00;;;;;;4254179;27;20081;-70
2021/07/09 09:30:51;;;;;;;11.88;4.35;;;23.50;80.90;;;;;;4263720;27;20064;-75
2021/07/09 09:32:54;;;;;;;11.88;4.82;;;23.40;80.80;;;;;;4232785;28;20048;-74
2021/07/09 09:34:57;;;;;;;5.55;4.10;;;23.50;80.10;;;;;;4258035;27;20059;-71
2021/07/09 09:37:03;;;;;;;10.57;4.60;;;23.70;80.40;;;;;;4256188;27;20128;-73
2021/07/09 09:39:17;;;;;;;9.73;4.68;;;23.80;79.50;;;;;;4258982;27;20051;-72
2021/07/09 09:41:21;;;;;;;7.53;4.72;;;23.90;77.50;;;;;;4257218;27;20060;-71
2021/07/09 09:43:26;;;;;;;8.40;4.70;;;24.10;79.70;;;;;;4251982;27;20073;-72
2021/07/09 09:45:29;;;;;;;;;;;23.90;79.60;;;;;;4252937;27;20067;-71
2021/07/09 09:47:34;;;;;;;13.23;4.93;;;23.90;80.20;;;;;;4251659;27;19920;-72
2021/07/09 09:49:45;;;;;;;13.45;5.10;;;23.90;78.40;;;;;;4248356;27;20407;-70
2021/07/09 09:51:51;;;;;;;14.38;4.90;;;24.00;78.20;;;;;;4230509;28;20059;-71
2021/07/09 09:53:57;;;;;;;16.33;5.20;;;24.10;78.90;;;;;;4247844;27;20047;-71
2021/07/09 09:56:13;;;;;;;9.95;4.90;;;24.20;79.50;;;;;;4247011;27;20628;-72
2021/07/09 09:58:18;;;;;;;7.00;4.18;;;24.10;78.10;;;;;;4250958;27;20138;-72
2021/07/09 10:00:29;;;;;;;7.68;4.70;;;24.20;78.60;;;;;;4252787;27;20090;-72
2021/07/09 10:02:52;;;;;;;9.45;4.50;;;24.20;78.10;;;;;;4257569;27;20117;-73
2021/07/09 10:04:55;;;;;;;10.30;4.63;;;24.10;77.30;;;;;;4259715;27;20057;-72
2021/07/09 10:06:59;;;;;;;10.55;4.38;;;24.10;78.40;;;;;;4257676;27;20047;-72
2021/07/09 10:09:05;;;;;;;5.95;4.07;;;24.20;78.00;;;;;;4257604;27;20099;-72
2021/07/09 10:11:08;;;;;;;7.75;4.47;;;24.30;78.50;;;;;;4259198;27;20061;-71
2021/07/09 10:13:14;;;;;;;8.45;4.95;;;24.40;79.10;;;;;;4251826;27;20086;-73
2021/07/09 10:15:17;;;;;;;10.13;4.47;;;24.50;77.60;;;;;;4247316;27;20047;-74
2021/07/09 10:17:25;;;;;;;8.88;4.30;;;24.50;78.20;;;;;;4247128;27;20059;-71
2021/07/09 10:19:37;;;;;;;9.88;5.03;;;24.50;76.80;;;;;;4229195;27;20101;-73
2021/07/09 10:21:57;;;;;;;10.00;5.28;;;24.30;78.10;;;;;;4245953;27;20069;-72
2021/07/09 10:24:03;;;;;;;12.75;4.65;;;24.30;78.50;;;;;;4242693;27;20051;-76
2021/07/09 10:26:07;;;;;;;13.32;5.22;;;24.40;77.20;;;;;;4248191;27;20566;-72
2021/07/09 10:28:11;;;;;;;8.77;5.30;;;24.40;77.50;;;;;;4250137;27;20054;-72
2021/07/09 10:30:15;;;;;;;14.23;4.82;;;24.40;78.00;;;;;;4248916;27;20051;-72
2021/07/09 10:32:32;;;;;;;9.20;4.70;;;24.50;76.40;;;;;;4247406;27;20066;-72
2021/07/09 10:34:38;;;;;;;6.65;4.70;;;24.60;77.30;;;;;;4247247;27;20051;-75
2021/07/09 10:36:50;;;;;;;7.22;4.32;;;24.40;77.00;;;;;;4247254;27;20051;-76
2021/07/09 10:38:55;;;;;;;10.73;3.88;;;24.50;77.30;;;;;;4244635;27;20054;-72
2021/07/09 10:41:12;;;;;;;10.73;4.50;;;24.60;76.70;;;;;;4247418;27;20126;-72
2021/07/09 10:43:16;;;;;;;6.50;3.85;;;24.70;76.60;;;;;;4226597;28;20052;-72
2021/07/09 10:45:22;;;;;;;7.57;4.50;;;24.60;76.80;;;;;;4247431;27;20051;-72
2021/07/09 10:47:36;;;;;;;6.00;3.80;;;24.50;76.10;;;;;;4249397;27;20056;-72
2021/07/09 10:49:54;;;;;;;8.50;4.53;;;24.40;76.10;;;;;;4248987;27;20047;-72
2021/07/09 10:51:58;;;;;;;10.55;4.35;;;24.20;77.30;;;;;;4246421;27;20107;-72